Time;durP1;ratioP1;P1;durP2;ratioP2;P2;SDS_P1;SDS_P2;PMS_P1;PMS_P2;Temp;Humidity;BMP_temperature;BMP_pressure;BME280_temperature;BME280_humidity;BME280_pressure;Samples;Min_cycle;Max_cycle;Signal;HPM_P1;HPM_P2
2022/10/29 00:03:52;;;;;;;;;;;14.30;99.90;;;12.27;99.51;101278.03;10350675;28;19934;-85
2022/10/29 00:08:57;;;;;;;;;;;14.30;99.90;;;12.25;99.49;101274.72;10363728;28;20410;-85
2022/10/29 00:14:00;;;;;;;;;;;14.30;99.90;;;12.24;99.38;101281.03;10343825;28;20397;-86
2022/10/29 00:19:03;;;;;;;;;;;14.30;99.90;;;12.25;99.62;101274.72;10341706;28;19933;-85
2022/10/29 00:24:08;;;;;;;;;;;14.30;99.90;;;12.27;99.51;101277.22;10347237;28;19934;-85
2022/10/29 00:29:11;;;;;;;;;;;14.30;99.90;;;12.28;99.82;101270.88;10320192;28;19934;-85
2022/10/29 00:34:14;;;;;;;;;;;14.40;99.90;;;12.29;99.66;101272.56;10330591;28;20374;-85
2022/10/29 00:39:17;;;;;;;;;;;14.30;99.90;;;12.27;99.62;101263.88;10355753;28;19933;-86
2022/10/29 00:44:25;;;;;;;;;;;14.30;99.90;;;12.27;99.62;101263.88;10330202;28;20316;-85
2022/10/29 00:49:33;;;;;;;;;;;14.40;99.90;;;12.26;99.72;101259.56;10340769;28;19963;-84
2022/10/29 00:54:39;;;;;;;;;;;14.40;99.90;;;12.23;99.72;101251.84;10321500;28;19937;-84
2022/10/29 00:59:44;;;;;;;;;;;14.30;99.90;;;12.23;99.68;101252.69;10337624;28;19964;-84
2022/10/29 01:04:47;;;;;;;;;;;14.30;99.90;;;12.23;99.68;101246.53;10339238;28;19934;-84
2022/10/29 01:09:50;;;;;;;;;;;14.30;99.90;;;12.19;99.72;101234.50;10312452;28;19933;-84
2022/10/29 01:15:02;;;;;;;;;;;14.30;99.90;;;12.19;99.72;101229.19;10333482;28;20036;-84
2022/10/29 01:20:20;;;;;;;;;;;14.20;99.90;;;12.17;99.76;101220.47;10321079;28;20390;-84
2022/10/29 01:25:45;;;;;;;;;;;14.20;99.90;;;12.13;99.94;101222.63;10338535;28;20400;-84
2022/10/29 01:31:00;;;;;;;;;;;14.10;99.90;;;12.11;100.00;101202.44;10358039;28;19934;-85
2022/10/29 01:36:18;;;;;;;;;;;14.10;99.90;;;12.08;100.00;101206.25;10334854;28;19934;-84
2022/10/29 01:41:31;;;;;;;;;;;14.10;99.90;;;12.06;100.00;101202.94;10318604;28;19934;-84
2022/10/29 01:46:45;;;;;;;;;;;14.10;99.90;;;12.01;100.00;101198.06;10349559;28;19941;-84
2022/10/29 01:51:48;;;;;;;;;;;14.10;99.90;;;12.00;100.00;101193.72;10359125;28;19934;-84
2022/10/29 01:56:58;;;;;;;;;;;14.00;99.90;;;11.97;100.00;101195.84;10331123;28;19941;-84
2022/10/29 02:02:35;;;;;;;;;;;14.00;99.90;;;11.99;100.00;101205.34;10355671;28;20422;-84
2022/10/29 02:07:49;;;;;;;;;;;14.00;99.90;;;11.99;100.00;101208.00;10295299;28;19934;-84
2022/10/29 02:12:54;;;;;;;;;;;14.10;99.90;;;11.93;100.00;101197.97;10356103;28;20456;-84
2022/10/29 02:18:02;;;;;;;;;;;14.10;99.90;;;11.98;100.00;101201.00;10341416;28;20413;-85
2022/10/29 02:23:05;;;;;;;;;;;14.10;99.90;;;11.98;100.00;101190.34;10332416;28;19934;-85
2022/10/29 02:28:08;;;;;;;;;;;14.10;99.90;;;11.99;100.00;101196.50;10325204;28;19934;-85
2022/10/29 02:33:11;;;;;;;;;;;14.10;99.90;;;11.97;100.00;101194.00;10332670;28;19934;-85
2022/10/29 02:38:14;;;;;;;;;;;14.10;99.90;;;11.95;100.00;101188.00;10340279;28;20056;-85
2022/10/29 02:43:17;;;;;;;;;;;14.10;99.90;;;11.95;100.00;101196.00;10333438;28;19934;-85
2022/10/29 02:48:24;;;;;;;;;;;14.10;99.90;;;11.93;100.00;101192.63;10351787;28;19934;-83
2022/10/29 02:53:27;;;;;;;;;;;14.10;99.90;;;11.94;100.00;101191.66;10342072;28;20396;-83
2022/10/29 02:58:30;;;;;;;;;;;14.10;99.90;;;11.92;100.00;101190.97;10339432;28;19965;-83
2022/10/29 03:03:33;;;;;;;;;;;14.00;99.90;;;11.93;100.00;101197.13;10354865;28;19964;-83
2022/10/29 03:08:36;;;;;;;;;;;14.00;99.90;;;11.93;100.00;101187.31;10348795;28;19957;-83
2022/10/29 03:13:39;;;;;;;;;;;14.00;99.90;;;11.91;100.00;101183.97;10339885;28;19934;-83
2022/10/29 03:18:41;;;;;;;;;;;14.00;99.90;;;11.89;100.00;101174.47;10321615;28;19934;-84
2022/10/29 03:23:44;;;;;;;;;;;13.90;99.90;;;11.88;100.00;101176.28;10325415;28;19934;-83
2022/10/29 03:28:47;;;;;;;;;;;13.90;99.90;;;11.87;100.00;101169.28;10340057;28;19937;-84
2022/10/29 03:33:50;;;;;;;;;;;13.90;99.90;;;11.84;100.00;101169.59;10334649;28;19934;-85
2022/10/29 03:38:53;;;;;;;;;;;13.90;99.90;;;11.88;100.00;101173.63;10325371;28;19941;-84
2022/10/29 03:43:55;;;;;;;;;;;13.90;99.90;;;11.89;100.00;101177.13;10330048;28;19937;-84
2022/10/29 03:48:58;;;;;;;;;;;14.00;99.90;;;11.89;100.00;101175.31;10360516;28;20025;-84
2022/10/29 03:54:00;;;;;;;;;;;14.00;99.90;;;11.87;100.00;101166.59;10371622;28;19937;-84
2022/10/29 03:59:03;;;;;;;;;;;13.90;99.90;;;11.88;100.00;101173.63;10334648;28;19934;-84
2022/10/29 04:04:08;;;;;;;;;;;13.90;99.90;;;11.87;100.00;101177.25;10311898;28;20452;-84
2022/10/29 04:09:10;;;;;;;;;;;13.90;99.90;;;11.87;100.00;101181.75;10342505;28;19933;-84
2022/10/29 04:14:14;;;;;;;;;;;13.90;99.90;;;11.90;100.00;101186.78;10340891;28;19974;-85
2022/10/29 04:19:17;;;;;;;;;;;14.00;99.90;;;11.92;100.00;101185.63;10338296;28;19933;-85
2022/10/29 04:24:19;;;;;;;;;;;14.00;99.90;;;11.91;100.00;101173.31;10310781;28;19935;-85
2022/10/29 04:29:42;;;;;;;;;;;14.00;99.90;;;11.89;100.00;101185.97;10341586;28;19933;-85
2022/10/29 04:34:45;;;;;;;;;;;14.00;99.90;;;11.93;100.00;101181.97;10322130;28;19985;-85
2022/10/29 04:39:48;;;;;;;;;;;14.00;99.90;;;11.93;100.00;101175.81;10346624;28;19940;-85
2022/10/29 04:44:51;;;;;;;;;;;14.00;99.90;;;11.92;100.00;101182.13;10360080;28;19933;-85
2022/10/29 04:49:53;;;;;;;;;;;14.00;99.90;;;11.93;100.00;101181.97;10340327;28;20648;-85
2022/10/29 04:54:56;;;;;;;;;;;14.00;99.90;;;11.93;100.00;101181.13;10317744;28;19934;-85
2022/10/29 04:59:59;;;;;;;;;;;14.00;99.90;;;11.91;100.00;101181.31;10334228;28;19934;-86
2022/10/29 05:05:02;;;;;;;;;;;14.00;99.90;;;11.89;100.00;101174.47;10323200;28;20287;-88
2022/10/29 05:10:05;;;;;;;;;;;13.90;99.90;;;11.90;100.00;101179.63;10325862;28;19933;-83
2022/10/29 05:15:08;;;;;;;;;;;13.90;99.90;;;11.89;100.00;101191.28;10339700;28;19962;-86
2022/10/29 05:20:11;;;;;;;;;;;13.90;99.90;;;11.87;100.00;101171.09;10338539;28;19940;-86
2022/10/29 05:25:14;;;;;;;;;;;13.90;99.90;;;11.89;100.00;101179.78;10337255;28;19961;-86
2022/10/29 05:30:17;;;;;;;;;;;13.90;99.90;;;11.88;100.00;101178.13;10332066;28;20529;-86
2022/10/29 05:35:20;;;;;;;;;;;13.90;99.90;;;11.88;100.00;101178.97;10324324;28;20353;-86
2022/10/29 05:40:26;;;;;;;;;;;13.90;99.90;;;11.90;100.00;101171.66;10360854;28;19948;-86
2022/10/29 05:45:29;;;;;;;;;;;13.90;99.90;;;11.85;100.00;101168.59;10333784;28;19934;-87
2022/10/29 05:50:33;;;;;;;;;;;13.90;99.90;;;11.83;100.00;101159.94;10315439;28;19941;-87
2022/10/29 05:55:36;;;;;;;;;;;13.90;99.90;;;11.82;100.00;101163.59;10361814;28;19940;-87
2022/10/29 06:00:42;;;;;;;;;;;13.80;99.90;;;11.76;100.00;101170.31;10349733;28;19981;-87
2022/10/29 06:05:49;;;;;;;;;;;13.80;99.90;;;11.72;100.00;101163.63;10323057;28;20033;-87
2022/10/29 06:10:51;;;;;;;;;;;13.80;99.90;;;11.72;100.00;101170.78;10368926;28;19934;-86
2022/10/29 06:15:57;;;;;;;;;;;13.80;99.90;;;11.73;100.00;101173.28;10358783;28;20036;-86
2022/10/29 06:21:00;;;;;;;;;;;13.80;99.90;;;11.75;100.00;101187.28;10358357;28;20429;-86
2022/10/29 06:26:03;;;;;;;;;;;13.80;99.90;;;11.82;100.00;101192.06;10359809;28;19933;-86
2022/10/29 06:31:06;;;;;;;;;;;13.80;99.90;;;11.83;100.00;101173.25;10365912;28;19934;-86
2022/10/29 06:36:08;;;;;;;;;;;13.90;99.90;;;11.82;100.00;101171.56;10354864;28;20024;-86
2022/10/29 06:41:12;;;;;;;;;;;13.90;99.90;;;11.75;100.00;101173.13;10349970;28;19937;-86
2022/10/29 06:46:15;;;;;;;;;;;13.90;99.90;;;11.74;100.00;101172.28;10339011;28;19933;-86
2022/10/29 06:51:18;;;;;;;;;;;13.80;99.90;;;11.71;100.00;101169.09;10332459;28;19934;-86
2022/10/29 06:56:21;;;;;;;;;;;13.80;99.90;;;11.71;100.00;101167.28;10352518;28;19934;-87
2022/10/29 07:01:25;;;;;;;;;;;13.80;99.90;;;11.69;100.00;101173.72;10349306;28;20641;-87
2022/10/29 07:06:33;;;;;;;;;;;13.80;99.90;;;11.71;100.00;101198.41;10348868;28;19934;-87
2022/10/29 07:11:36;;;;;;;;;;;13.70;99.90;;;11.75;100.00;101197.94;10341332;28;19933;-88
2022/10/29 07:16:39;;;;;;;;;;;13.70;99.90;;;11.80;100.00;101213.44;10341976;28;19941;-87
2022/10/29 07:21:42;;;;;;;;;;;13.80;99.90;;;11.80;100.00;101197.47;10351406;28;19940;-87
2022/10/29 07:26:45;;;;;;;;;;;13.80;99.90;;;11.88;100.00;101208.25;10334816;28;19938;-87
2022/10/29 07:31:48;;;;;;;;;;;13.90;99.90;;;11.88;100.00;101205.59;10343413;28;19934;-87
2022/10/29 07:36:51;;;;;;;;;;;13.90;99.90;;;11.92;100.00;101196.28;10338741;28;19934;-87
2022/10/29 07:41:54;;;;;;;;;;;13.90;99.90;;;11.92;100.00;101198.13;10338296;28;20032;-88
2022/10/29 07:47:01;;;;;;;;;;;14.00;99.90;;;11.90;100.00;101192.94;10330784;28;20540;-88
2022/10/29 07:52:05;;;;;;;;;;;13.90;99.90;;;11.89;100.00;101199.28;10321337;28;19934;-88
2022/10/29 07:57:08;;;;;;;;;;;13.90;99.90;;;11.88;100.00;101184.28;10333600;28;19937;-88
2022/10/29 08:02:10;;;;;;;;;;;13.90;99.90;;;11.96;100.00;101189.69;10347212;28;19941;-86
2022/10/29 08:07:13;;;;;;;;;;;14.00;99.90;;;11.96;100.00;101197.66;10320229;28;19934;-86
2022/10/29 08:12:16;;;;;;;;;;;14.00;99.90;;;11.96;100.00;101192.34;10337969;28;20484;-85
2022/10/29 08:17:19;;;;;;;;;;;14.00;99.90;;;11.96;100.00;101205.66;10342277;28;20049;-85
2022/10/29 08:22:22;;;;;;;;;;;14.00;99.90;;;11.97;100.00;101206.50;10364085;28;19984;-85
2022/10/29 08:27:25;;;;;;;;;;;14.00;99.90;;;11.96;99.80;101200.34;10344485;28;19934;-85
2022/10/29 08:32:28;;;;;;;;;;;14.00;99.90;;;12.03;99.91;101192.56;10340858;28;19941;-85
2022/10/29 08:37:31;;;;;;;;;;;14.10;99.90;;;12.11;100.00;101179.31;10346332;28;19933;-85
2022/10/29 08:42:49;;;;;;;;;;;14.20;99.90;;;12.20;99.63;101177.56;10341026;28;19934;-85
2022/10/29 08:48:14;;;;;;;;;;;14.20;99.90;;;12.24;98.97;101190.44;10323052;28;19941;-85
2022/10/29 08:53:20;;;;;;;;;;;14.30;99.90;;;12.25;98.78;101178.78;10329708;28;20429;-84
2022/10/29 08:59:10;;;;;;;;;;;14.30;99.90;;;12.35;98.58;101186.66;10316999;28;19934;-85
2022/10/29 09:04:21;;;;;;;;;;;14.30;99.90;;;12.38;98.09;101186.34;10335553;28;19934;-85
2022/10/29 09:09:38;;;;;;;;;;;14.30;99.90;;;12.42;97.64;101194.91;10340271;28;20252;-86
2022/10/29 09:14:56;;;;;;;;;;;14.40;99.90;;;12.46;97.11;101185.56;10331145;28;20431;-84
2022/10/29 09:20:22;;;;;;;;;;;14.50;99.90;;;12.53;96.72;101174.16;10359018;28;20290;-84
2022/10/29 09:25:41;;;;;;;;;;;14.50;99.90;;;12.57;96.20;101175.47;10364929;28;20032;-84
2022/10/29 09:31:09;;;;;;;;;;;14.50;99.90;;;12.58;95.90;101169.16;10352068;28;19940;-82
2022/10/29 09:36:17;;;;;;;;;;;14.60;99.90;;;12.57;95.15;101175.47;10331570;28;20033;-85
2022/10/29 09:41:24;;;;;;;;;;;14.50;99.90;;;12.56;95.05;101184.47;10326939;28;19941;-84
2022/10/29 09:46:45;;;;;;;;;;;14.50;99.90;;;12.59;95.06;101173.53;10365043;28;19964;-84
2022/10/29 09:51:57;;;;;;;;;;;14.60;99.90;;;12.64;94.76;101161.53;10349257;28;20027;-84
2022/10/29 09:57:01;;;;;;;;;;;14.60;99.90;;;12.68;94.62;101168.22;10347105;28;19941;-84
2022/10/29 10:02:26;;;;;;;;;;;14.60;99.90;;;12.66;93.46;101165.72;10332986;28;19941;-84
2022/10/29 10:07:29;;;;;;;;;;;14.70;99.90;;;12.74;93.94;101160.44;10302157;28;19934;-84
2022/10/29 10:12:35;;;;;;;;;;;14.70;99.90;;;12.84;93.77;101150.47;10346152;28;19941;-85
2022/10/29 10:17:57;;;;;;;;;;;14.80;99.90;;;12.92;93.35;101139.00;10358254;28;20040;-84
2022/10/29 10:23:14;;;;;;;;;;;14.90;99.90;;;12.96;92.58;101132.38;10316260;28;19934;-84
2022/10/29 10:28:30;;;;;;;;;;;14.90;99.90;;;13.03;92.70;101143.22;10343338;28;20358;-82
2022/10/29 10:33:35;;;;;;;;;;;15.00;99.90;;;13.10;92.57;101134.41;10343895;28;19934;-82
2022/10/29 10:38:44;;;;;;;;;;;15.10;99.90;;;13.20;92.13;101128.13;10319674;28;20346;-82
2022/10/29 10:43:47;;;;;;;;;;;15.20;99.90;;;13.28;91.63;101131.66;10334542;28;19934;-82
2022/10/29 10:49:05;;;;;;;;;;;15.20;99.90;;;13.35;91.03;101130.00;10342572;28;20669;-82
2022/10/29 10:54:26;;;;;;;;;;;15.30;99.90;;;13.47;91.00;101119.03;10325294;28;20038;-82
2022/10/29 11:00:14;;;;;;;;;;;15.40;99.90;;;13.59;90.38;101115.88;10339904;28;19934;-82
2022/10/29 11:05:24;;;;;;;;;;;15.60;99.90;;;13.78;90.40;101103.19;10340629;28;19934;-82
2022/10/29 11:10:36;;;;;;;;;;;15.70;99.90;;;14.02;89.96;101097.84;10331177;28;19934;-83
2022/10/29 11:15:43;;;;;;;;;;;16.00;99.90;;;14.26;89.09;101106.81;10346646;28;19926;-84
2022/10/29 11:21:22;;;;;;;;;;;16.30;99.90;;;14.18;87.58;101092.47;10340985;28;20286;-84
2022/10/29 11:26:39;;;;;;;;;;;16.30;99.90;;;14.14;87.85;101088.47;10324266;28;20314;-84
2022/10/29 11:32:09;;;;;;;;;;;16.20;99.90;;;14.14;87.58;101080.44;10347320;28;20378;-84
2022/10/29 11:37:17;;;;;;;;;;;16.20;99.90;;;14.13;87.30;101084.13;10343410;28;19934;-84
2022/10/29 11:42:20;;;;;;;;;;;16.20;99.90;;;14.05;87.01;101083.31;10334142;28;19941;-83
2022/10/29 11:47:56;;;;;;;;;;;16.10;99.90;;;13.99;86.99;101075.97;10343392;28;19940;-84
2022/10/29 11:53:16;;;;;;;;;;;16.00;99.90;;;13.91;87.10;101066.09;10333372;28;19969;-84
2022/10/29 11:58:24;;;;;;;;;;;16.00;99.90;;;13.96;87.46;101062.94;10315367;28;19941;-84
2022/10/29 12:03:32;;;;;;;;;;;16.00;99.90;;;14.02;87.59;101047.06;10353299;28;19940;-84
2022/10/29 12:08:54;;;;;;;;;;;16.00;99.90;;;14.08;87.53;101037.53;10351029;28;19933;-84
2022/10/29 12:14:16;;;;;;;;;;;16.10;99.90;;;14.14;87.47;101032.34;10372830;28;19934;-84
2022/10/29 12:19:53;;;;;;;;;;;16.10;99.90;;;14.23;87.16;101025.16;10373477;28;19940;-84
2022/10/29 12:25:05;;;;;;;;;;;16.20;99.90;;;14.25;86.89;101020.44;10347046;28;19933;-84
2022/10/29 12:30:10;;;;;;;;;;;16.30;99.90;;;14.19;86.13;101011.28;10373078;28;19934;-84
2022/10/29 12:35:33;;;;;;;;;;;16.30;99.90;;;14.19;86.37;101010.44;10353926;28;19988;-84
2022/10/29 12:40:40;;;;;;;;;;;16.20;99.90;;;14.15;86.85;101004.63;10345496;28;21413;-83
2022/10/29 12:46:05;;;;;;;;;;;16.20;99.90;;;14.18;86.48;100998.91;10350460;28;20036;-84
2022/10/29 12:51:43;;;;;;;;;;;16.20;99.90;;;14.23;86.78;100993.06;10350455;28;19933;-84
2022/10/29 12:56:48;;;;;;;;;;;16.20;99.90;;;14.33;86.93;101000.88;10347877;28;30561;-82
2022/10/29 13:01:52;;;;;;;;;;;16.30;99.90;;;14.39;86.07;101003.72;10345206;28;20024;-83
2022/10/29 13:07:19;;;;;;;;;;;16.40;99.90;;;14.40;85.86;100996.53;10354900;28;19937;-82
2022/10/29 13:12:52;;;;;;;;;;;16.40;99.90;;;14.45;85.92;101003.03;10350883;28;19933;-82
2022/10/29 13:17:58;;;;;;;;;;;16.50;99.90;;;14.47;85.56;101000.19;10342777;28;19934;-83
2022/10/29 13:23:02;;;;;;;;;;;16.50;99.90;;;14.46;85.55;100987.81;10340460;28;19940;-82
2022/10/29 13:28:14;;;;;;;;;;;16.50;99.90;;;14.45;85.24;100994.13;10346008;28;19988;-82
2022/10/29 13:33:26;;;;;;;;;;;16.50;99.90;;;14.37;85.05;100989.66;10321312;28;19989;-82
2022/10/29 13:38:53;;;;;;;;;;;16.40;99.90;;;14.35;85.33;100983.66;10353644;28;19934;-83
2022/10/29 13:44:13;;;;;;;;;;;16.40;99.90;;;14.26;85.10;100984.69;10331263;28;19989;-83
2022/10/29 13:49:37;;;;;;;;;;;16.30;99.90;;;14.14;85.24;100986.06;10330925;28;19934;-83
2022/10/29 13:54:50;;;;;;;;;;;16.20;99.90;;;13.98;85.59;100976.28;10326595;28;20410;-83
2022/10/29 14:00:23;;;;;;;;;;;16.10;99.90;;;13.87;86.04;100969.44;10338662;28;19994;-82
2022/10/29 14:05:46;;;;;;;;;;;15.90;99.90;;;13.77;86.15;100979.47;10314072;28;19985;-83
2022/10/29 14:10:53;;;;;;;;;;;15.80;99.90;;;13.67;86.68;100973.47;10346224;28;19940;-82
2022/10/29 14:16:07;;;;;;;;;;;15.70;99.90;;;13.61;87.23;100975.00;10333874;28;19965;-82
2022/10/29 14:21:28;;;;;;;;;;;15.70;99.90;;;13.52;87.23;100989.34;10356264;28;19941;-83
2022/10/29 14:26:33;;;;;;;;;;;15.60;99.90;;;13.45;87.55;100987.53;10334656;28;19937;-82
2022/10/29 14:31:35;;;;;;;;;;;15.50;99.90;;;13.39;87.83;100973.84;10352266;28;19934;-83
2022/10/29 14:36:45;;;;;;;;;;;15.40;99.90;;;13.40;88.33;100990.69;10340613;28;19999;-83
2022/10/29 14:41:49;;;;;;;;;;;15.40;99.90;;;13.36;88.33;100986.69;10338271;28;19985;-82
2022/10/29 14:47:17;;;;;;;;;;;15.30;99.90;;;13.35;88.68;100985.00;10319645;28;19933;-82
2022/10/29 14:52:39;;;;;;;;;;;15.30;99.90;;;13.30;88.78;100971.34;10343903;28;19941;-82
2022/10/29 14:57:46;;;;;;;;;;;15.30;99.90;;;13.25;88.62;100987.00;10355957;28;20283;-81
2022/10/29 15:02:49;;;;;;;;;;;15.20;99.90;;;13.20;88.93;100976.00;10353723;28;19934;-86
2022/10/29 15:08:07;;;;;;;;;;;15.20;99.90;;;13.14;89.11;100958.81;10326249;28;20043;-81
2022/10/29 15:13:25;;;;;;;;;;;15.10;99.90;;;13.08;89.39;100949.63;10346573;28;19934;-84
2022/10/29 15:18:29;;;;;;;;;;;15.10;99.90;;;13.02;89.65;100962.81;10362838;28;19934;-84
2022/10/29 15:23:41;;;;;;;;;;;15.00;99.90;;;13.01;90.02;100959.25;10341241;28;19941;-84
2022/10/29 15:28:45;;;;;;;;;;;15.00;99.90;;;12.98;90.15;100967.63;10321126;28;20500;-84
2022/10/29 15:33:51;;;;;;;;;;;14.90;99.90;;;12.94;90.41;100952.09;10338032;28;19969;-84
2022/10/29 15:39:18;;;;;;;;;;;14.90;99.90;;;12.90;90.70;100946.28;10332889;28;20345;-85
2022/10/29 15:44:39;;;;;;;;;;;14.90;99.90;;;12.86;90.93;100952.94;10322104;28;19934;-84
2022/10/29 15:49:41;;;;;;;;;;;14.80;99.90;;;12.89;91.23;100967.75;10349135;28;20021;-84
2022/10/29 15:54:46;;;;;;;;;;;14.80;99.90;;;12.89;91.34;100981.09;10351073;28;19940;-86
2022/10/29 15:59:54;;;;;;;;;;;14.90;99.90;;;12.89;91.42;100965.09;10330830;28;19965;-85
2022/10/29 16:04:57;;;;;;;;;;;14.80;99.90;;;12.85;91.57;100975.28;10332952;28;20453;-85
2022/10/29 16:10:00;;;;;;;;;;;14.80;99.90;;;12.87;91.58;100962.59;10337261;28;19934;-84
2022/10/29 16:15:04;;;;;;;;;;;14.80;99.90;;;12.88;91.84;100976.75;10368206;28;19940;-84
2022/10/29 16:20:11;;;;;;;;;;;14.90;99.90;;;12.89;91.87;100971.25;10362298;28;19934;-83
2022/10/29 16:25:21;;;;;;;;;;;14.90;99.90;;;12.89;91.75;100963.25;10338071;28;19934;-84
2022/10/29 16:30:24;;;;;;;;;;;14.90;99.90;;;12.91;91.96;100960.44;10314688;28;20049;-84
2022/10/29 16:35:28;;;;;;;;;;;14.90;99.90;;;12.90;91.99;100964.13;10362801;28;19988;-88
2022/10/29 16:40:31;;;;;;;;;;;14.90;99.90;;;12.87;92.14;100954.59;10341870;28;19934;-85
2022/10/29 16:45:33;;;;;;;;;;;14.90;99.90;;;12.87;92.16;100967.94;10321149;28;19934;-85
2022/10/29 16:50:36;;;;;;;;;;;14.80;99.90;;;12.84;92.06;100963.78;10322349;28;19938;-85
2022/10/29 16:55:40;;;;;;;;;;;14.90;99.90;;;12.84;92.25;100957.59;10344551;28;20394;-81
2022/10/29 17:00:43;;;;;;;;;;;14.80;99.90;;;12.79;92.22;100970.59;10334193;28;19934;-84
2022/10/29 17:05:46;;;;;;;;;;;14.90;99.90;;;12.78;92.39;100971.59;10346623;28;19957;-84
2022/10/29 17:10:49;;;;;;;;;;;14.80;99.90;;;12.77;92.66;100951.22;10353822;28;20029;-84
2022/10/29 17:15:52;;;;;;;;;;;14.70;99.90;;;12.74;92.58;100954.25;10356291;28;19934;-84
2022/10/29 17:20:59;;;;;;;;;;;14.70;99.90;;;12.67;92.77;100947.91;10377284;28;19934;-84
2022/10/29 17:26:02;;;;;;;;;;;14.70;99.90;;;12.58;92.95;100953.19;10337929;28;19981;-84
2022/10/29 17:31:06;;;;;;;;;;;14.60;99.90;;;12.56;93.42;100952.53;10322973;28;19985;-84
2022/10/29 17:36:13;;;;;;;;;;;14.50;99.90;;;12.51;93.47;100951.34;10339408;28;19933;-84
2022/10/29 17:41:16;;;;;;;;;;;14.50;99.90;;;12.46;93.47;100961.66;10352223;28;19934;-83
2022/10/29 17:46:19;;;;;;;;;;;14.40;99.90;;;12.38;93.82;100951.81;10377161;28;19977;-83
2022/10/29 17:51:22;;;;;;;;;;;14.40;99.90;;;12.34;94.17;100963.78;10337918;28;20034;-84
2022/10/29 17:56:25;;;;;;;;;;;14.30;99.90;;;12.26;94.32;100953.91;10318377;28;19991;-84
2022/10/29 18:01:28;;;;;;;;;;;14.20;99.90;;;12.23;94.82;100961.38;10318257;28;19934;-84
2022/10/29 18:06:31;;;;;;;;;;;14.20;99.90;;;12.17;94.91;100951.38;10322796;28;19934;-83
2022/10/29 18:11:34;;;;;;;;;;;14.20;99.90;;;12.13;95.31;100958.88;10319599;28;19934;-84
2022/10/29 18:16:36;;;;;;;;;;;14.10;99.90;;;12.12;95.61;100959.03;10339973;28;19933;-84
2022/10/29 18:21:39;;;;;;;;;;;14.10;99.90;;;12.10;95.66;100959.16;10342921;28;19933;-84
2022/10/29 18:26:47;;;;;;;;;;;14.00;99.90;;;12.13;95.91;100968.69;10381513;28;20032;-84
2022/10/29 18:31:50;;;;;;;;;;;14.00;99.90;;;12.09;96.07;100962.84;10350130;28;20001;-84
2022/10/29 18:36:53;;;;;;;;;;;14.00;99.90;;;12.09;96.04;100959.34;10345323;28;19934;-84
2022/10/29 18:41:56;;;;;;;;;;;14.00;99.90;;;12.05;96.16;100965.00;10339463;28;20020;-84
2022/10/29 18:46:59;;;;;;;;;;;14.00;99.90;;;12.01;96.16;100960.13;10354404;28;19941;-84
2022/10/29 18:52:01;;;;;;;;;;;13.90;99.90;;;11.95;96.45;100950.94;10365138;28;19937;-84
2022/10/29 18:57:04;;;;;;;;;;;13.90;99.90;;;11.95;96.32;100939.47;10358824;28;19941;-83
2022/10/29 19:02:10;;;;;;;;;;;13.90;99.90;;;11.90;96.49;100928.44;10331416;28;19942;-85
2022/10/29 19:07:13;;;;;;;;;;;13.80;99.90;;;11.89;96.76;100935.59;10312417;28;19977;-84
2022/10/29 19:12:15;;;;;;;;;;;13.80;99.90;;;11.88;96.72;100919.78;10343885;28;20013;-83
2022/10/29 19:17:18;;;;;;;;;;;13.80;99.90;;;11.88;96.97;100933.09;10338705;28;19934;-84
2022/10/29 19:22:21;;;;;;;;;;;13.80;99.90;;;11.87;97.18;100926.91;10343009;28;20401;-85
2022/10/29 19:27:23;;;;;;;;;;;13.80;99.90;;;11.94;97.17;100933.31;10346061;28;19934;-84
2022/10/29 19:32:26;;;;;;;;;;;13.80;99.90;;;11.96;97.39;100922.47;10340984;28;20011;-84
2022/10/29 19:37:29;;;;;;;;;;;13.90;99.90;;;11.99;97.55;100922.97;10330746;28;19934;-84
2022/10/29 19:42:32;;;;;;;;;;;13.90;99.90;;;12.01;97.37;100915.69;10364409;28;19940;-84
2022/10/29 19:47:35;;;;;;;;;;;14.00;99.90;;;12.05;97.64;100914.38;10338656;28;19940;-84
2022/10/29 19:52:37;;;;;;;;;;;14.00;99.90;;;12.05;97.51;100902.88;10351270;28;20390;-84
2022/10/29 19:57:40;;;;;;;;;;;14.00;99.90;;;12.04;97.70;100909.19;10321750;28;20393;-84
2022/10/29 20:02:43;;;;;;;;;;;14.00;99.90;;;12.04;97.92;100909.19;10364425;28;19938;-84
2022/10/29 20:07:48;;;;;;;;;;;14.00;99.90;;;12.05;98.02;100913.53;10338571;28;19934;-84
2022/10/29 20:12:50;;;;;;;;;;;14.00;99.90;;;12.02;97.92;100909.34;10344843;28;19933;-85
2022/10/29 20:17:53;;;;;;;;;;;14.00;99.90;;;12.01;98.31;100915.69;10354304;28;19965;-84
2022/10/29 20:22:58;;;;;;;;;;;13.90;99.90;;;12.00;98.38;100911.34;10343879;28;20018;-84
2022/10/29 20:28:03;;;;;;;;;;;13.90;99.90;;;12.03;98.24;100900.38;10355439;28;19934;-84
2022/10/29 20:33:06;;;;;;;;;;;14.00;99.90;;;12.04;98.41;100901.19;10340215;28;19934;-84
2022/10/29 20:38:08;;;;;;;;;;;14.00;99.90;;;12.04;98.65;100918.00;10337251;28;19934;-84
2022/10/29 20:43:11;;;;;;;;;;;14.00;99.90;;;12.04;98.68;100903.88;10330234;28;19934;-84
2022/10/29 20:48:14;;;;;;;;;;;14.00;99.90;;;12.05;98.90;100916.19;10316607;28;19989;-84
2022/10/29 20:53:17;;;;;;;;;;;14.00;99.90;;;12.09;99.03;100922.03;10329540;28;19941;-86
2022/10/29 20:58:21;;;;;;;;;;;14.00;99.90;;;12.09;98.81;100916.72;10352922;28;20094;-85
2022/10/29 21:03:24;;;;;;;;;;;14.00;99.90;;;12.09;98.91;100922.03;10322439;28;20164;-85
2022/10/29 21:08:27;;;;;;;;;;;14.00;99.90;;;12.08;99.05;100923.03;10362612;28;20049;-85
2022/10/29 21:13:36;;;;;;;;;;;14.00;99.90;;;12.09;99.25;100916.72;10348129;28;19988;-85
2022/10/29 21:18:40;;;;;;;;;;;14.00;99.90;;;12.07;99.21;100926.69;10345294;28;19934;-85
2022/10/29 21:23:43;;;;;;;;;;;14.00;99.90;;;12.08;99.35;100915.03;10320141;28;19938;-85
2022/10/29 21:28:47;;;;;;;;;;;14.00;99.90;;;12.12;99.53;100924.41;10326940;28;19935;-85
2022/10/29 21:33:53;;;;;;;;;;;14.10;99.90;;;12.11;99.39;100918.22;10324206;28;19981;-85
2022/10/29 21:38:56;;;;;;;;;;;14.10;99.90;;;12.10;99.42;100929.03;10334709;28;20103;-85
2022/10/29 21:43:59;;;;;;;;;;;14.10;99.90;;;12.07;99.38;100927.53;10360192;28;20456;-85
2022/10/29 21:49:02;;;;;;;;;;;14.00;99.90;;;12.00;99.21;100922.00;10337614;28;19933;-85
2022/10/29 21:54:05;;;;;;;;;;;14.00;99.90;;;11.97;99.39;100911.66;10324430;28;19934;-85
2022/10/29 21:59:07;;;;;;;;;;;13.90;99.90;;;11.97;99.52;100903.66;10333655;28;19965;-85
2022/10/29 22:04:10;;;;;;;;;;;13.90;99.90;;;11.98;99.65;100910.66;10339985;28;19934;-84
2022/10/29 22:09:13;;;;;;;;;;;13.90;99.90;;;11.95;99.68;100908.34;10330527;28;19933;-85
2022/10/29 22:14:16;;;;;;;;;;;13.90;99.90;;;11.97;99.64;100906.34;10342239;28;20047;-85
2022/10/29 22:19:19;;;;;;;;;;;14.00;99.90;;;11.95;99.76;100904.84;10325582;28;19934;-85
2022/10/29 22:24:21;;;;;;;;;;;14.00;99.90;;;11.95;99.93;100907.50;10322340;28;19934;-85
2022/10/29 22:29:25;;;;;;;;;;;13.90;99.90;;;11.93;100.00;100898.81;10358814;28;20377;-85
2022/10/29 22:34:28;;;;;;;;;;;14.00;99.90;;;11.94;100.00;100882.69;10341432;28;19934;-85
2022/10/29 22:39:31;;;;;;;;;;;14.00;99.90;;;11.92;100.00;100875.84;10325312;28;19941;-85
2022/10/29 22:44:34;;;;;;;;;;;13.90;99.90;;;11.89;100.00;100876.19;10355041;28;19941;-85
2022/10/29 22:49:37;;;;;;;;;;;13.90;99.90;;;11.87;100.00;100871.00;10351971;28;19985;-85
2022/10/29 22:54:39;;;;;;;;;;;13.90;99.90;;;11.87;100.00;100878.97;10323603;28;19934;-85
2022/10/29 22:59:42;;;;;;;;;;;13.80;99.90;;;11.85;100.00;100880.97;10321601;28;19941;-85